Time;durP1;ratioP1;P1;durP2;ratioP2;P2;SDS_P1;SDS_P2;PMS_P1;PMS_P2;Temp;Humidity;BMP_temperature;BMP_pressure;BME280_temperature;BME280_humidity;BME280_pressure;Samples;Min_cycle;Max_cycle;Signal;HPM_P1;HPM_P2
2021/08/28 00:01:58;;;;;;;2.03;1.93;;;12.80;99.90;;;;;;495295;240;28831;-69
2021/08/28 00:04:00;;;;;;;1.80;1.70;;;;;;;;;;495263;240;28962;-70
2021/08/28 00:06:01;;;;;;;1.97;1.67;;;12.70;99.90;;;;;;495267;240;26974;-70
2021/08/28 00:08:03;;;;;;;1.90;1.80;;;12.70;99.90;;;;;;495212;240;28827;-70
2021/08/28 00:10:04;;;;;;;1.90;1.80;;;12.70;99.90;;;;;;495249;240;29208;-69
2021/08/28 00:12:05;;;;;;;2.00;1.90;;;12.70;99.90;;;;;;495284;240;28566;-70
2021/08/28 00:14:06;;;;;;;1.80;1.70;;;12.70;99.90;;;;;;495133;240;28971;-69
2021/08/28 00:16:08;;;;;;;1.90;1.80;;;12.70;99.90;;;;;;495038;240;28560;-69
2021/08/28 00:18:09;;;;;;;1.83;1.70;;;12.70;99.90;;;;;;494968;240;28363;-69
2021/08/28 00:20:11;;;;;;;1.70;1.60;;;12.70;99.90;;;;;;495224;240;28796;-70
2021/08/28 00:22:11;;;;;;;1.97;1.87;;;12.70;99.90;;;;;;495252;240;28593;-70
2021/08/28 00:24:13;;;;;;;1.90;1.80;;;12.70;99.90;;;;;;495214;240;28520;-69
2021/08/28 00:26:15;;;;;;;2.20;1.70;;;;;;;;;;495244;240;28365;-69
2021/08/28 00:28:16;;;;;;;2.33;1.83;;;12.70;99.90;;;;;;495292;240;27429;-70
2021/08/28 00:30:18;;;;;;;1.80;1.70;;;12.80;99.90;;;;;;495252;240;28590;-70
2021/08/28 00:32:19;;;;;;;2.30;1.93;;;12.80;99.90;;;;;;495277;240;28273;-70
2021/08/28 00:34:20;;;;;;;1.77;1.67;;;12.80;99.90;;;;;;495182;240;28163;-70
2021/08/28 00:36:21;;;;;;;2.70;1.90;;;12.80;99.90;;;;;;495292;240;28402;-70
2021/08/28 00:38:23;;;;;;;2.60;1.87;;;12.80;99.90;;;;;;495302;240;28494;-70
2021/08/28 00:40:24;;;;;;;2.13;1.90;;;12.80;99.90;;;;;;495248;240;28562;-70
2021/08/28 00:42:25;;;;;;;1.73;1.63;;;12.80;99.90;;;;;;495256;240;28522;-70
2021/08/28 00:44:26;;;;;;;2.00;1.90;;;12.80;99.90;;;;;;495234;240;29844;-70
2021/08/28 00:46:28;;;;;;;2.33;2.13;;;12.80;99.90;;;;;;495293;240;29225;-70
2021/08/28 00:48:29;;;;;;;2.30;2.20;;;12.80;99.90;;;;;;495274;240;28754;-70
2021/08/28 00:50:30;;;;;;;1.90;1.80;;;12.80;99.90;;;;;;495215;240;29003;-70
2021/08/28 00:52:31;;;;;;;1.80;1.70;;;12.70;99.90;;;;;;495241;240;28077;-70
2021/08/28 00:54:33;;;;;;;2.00;1.90;;;12.70;99.90;;;;;;495305;240;28549;-71
2021/08/28 00:56:34;;;;;;;2.27;2.17;;;12.70;99.90;;;;;;495275;240;28034;-70
2021/08/28 00:58:35;;;;;;;1.80;1.70;;;12.70;99.90;;;;;;495283;240;28292;-70
2021/08/28 01:00:36;;;;;;;1.83;1.73;;;12.70;99.90;;;;;;495248;240;28837;-70
2021/08/28 01:02:38;;;;;;;2.10;2.00;;;12.60;99.90;;;;;;495282;240;28312;-70
2021/08/28 01:04:39;;;;;;;2.03;1.90;;;12.60;99.90;;;;;;495314;240;28850;-70
2021/08/28 01:06:40;;;;;;;2.43;2.23;;;12.50;99.90;;;;;;495277;240;28496;-70
2021/08/28 01:08:41;;;;;;;1.80;1.70;;;12.50;99.90;;;;;;495281;240;28944;-70
2021/08/28 01:10:43;;;;;;;2.20;2.10;;;12.50;99.90;;;;;;495241;240;28881;-70
2021/08/28 01:12:44;;;;;;;2.13;1.93;;;12.40;99.90;;;;;;495322;240;29366;-70
2021/08/28 01:14:46;;;;;;;2.30;2.03;;;;;;;;;;495303;240;28494;-70
2021/08/28 01:16:48;;;;;;;2.37;2.20;;;12.40;99.90;;;;;;495240;240;27405;-70
2021/08/28 01:18:49;;;;;;;2.33;2.13;;;12.50;99.90;;;;;;495230;240;28456;-70
2021/08/28 01:20:50;;;;;;;2.43;2.27;;;12.60;99.90;;;;;;495308;240;28788;-70
2021/08/28 01:22:51;;;;;;;3.30;2.10;;;12.60;99.90;;;;;;495250;240;28855;-70
2021/08/28 01:24:53;;;;;;;2.43;2.27;;;12.60;99.90;;;;;;495284;240;28880;-69
2021/08/28 01:26:54;;;;;;;2.40;2.30;;;12.50;99.90;;;;;;495247;240;28181;-70
2021/08/28 01:28:55;;;;;;;2.20;2.10;;;12.50;99.90;;;;;;495262;240;28153;-70
2021/08/28 01:30:56;;;;;;;2.60;2.30;;;12.50;99.90;;;;;;495302;240;28869;-69
2021/08/28 01:32:58;;;;;;;2.50;2.30;;;12.40;99.90;;;;;;495246;240;28526;-70
2021/08/28 01:34:59;;;;;;;2.30;2.10;;;12.50;99.90;;;;;;495291;240;28231;-70
2021/08/28 01:37:00;;;;;;;2.57;2.40;;;12.50;99.90;;;;;;495200;240;28613;-69
2021/08/28 01:39:01;;;;;;;2.50;2.33;;;12.50;99.90;;;;;;495311;240;28512;-70
2021/08/28 01:41:03;;;;;;;2.30;2.20;;;12.50;99.90;;;;;;495261;240;28511;-69
2021/08/28 01:43:04;;;;;;;2.40;2.20;;;12.50;99.90;;;;;;495229;240;29274;-70
2021/08/28 01:45:07;;;;;;;3.53;2.80;;;12.50;99.90;;;;;;495235;240;28805;-70
2021/08/28 01:47:06;;;;;;;2.37;2.17;;;12.50;99.90;;;;;;495191;240;29097;-70
2021/08/28 01:49:08;;;;;;;2.83;2.60;;;12.60;99.90;;;;;;495243;240;28498;-69
2021/08/28 01:51:09;;;;;;;5.53;2.63;;;12.60;99.90;;;;;;495261;240;28347;-69
2021/08/28 01:53:10;;;;;;;2.70;2.50;;;12.60;99.90;;;;;;495196;240;28485;-70
2021/08/28 01:55:11;;;;;;;3.20;2.90;;;12.70;99.90;;;;;;495258;240;28103;-70
2021/08/28 01:57:14;;;;;;;2.60;2.40;;;;;;;;;;495300;240;28086;-69
2021/08/28 01:59:15;;;;;;;2.67;2.50;;;12.70;99.90;;;;;;495227;240;27488;-70
2021/08/28 02:01:16;;;;;;;3.50;2.70;;;12.70;99.90;;;;;;495212;240;28386;-70
2021/08/28 02:03:18;;;;;;;2.23;2.10;;;12.70;99.90;;;;;;495197;240;28504;-70
2021/08/28 02:05:19;;;;;;;2.93;2.67;;;12.70;99.90;;;;;;495327;240;28540;-69
2021/08/28 02:07:20;;;;;;;3.87;2.57;;;12.70;99.90;;;;;;495295;240;28310;-70
2021/08/28 02:09:22;;;;;;;3.80;3.30;;;12.70;99.90;;;;;;495264;240;28436;-70
2021/08/28 02:11:23;;;;;;;2.93;2.73;;;12.70;99.90;;;;;;495289;240;28519;-70
2021/08/28 02:13:24;;;;;;;3.27;2.97;;;12.70;99.90;;;;;;495258;240;28909;-70
2021/08/28 02:15:25;;;;;;;2.90;2.70;;;12.70;99.90;;;;;;495322;240;28341;-70
2021/08/28 02:17:27;;;;;;;3.73;3.07;;;12.70;99.90;;;;;;495132;240;28878;-70
2021/08/28 02:19:28;;;;;;;2.90;2.70;;;12.70;99.90;;;;;;495234;240;28686;-69
2021/08/28 02:21:29;;;;;;;3.03;2.60;;;12.70;99.90;;;;;;495282;240;28645;-70
2021/08/28 02:23:30;;;;;;;3.37;3.07;;;12.70;99.90;;;;;;495285;240;28537;-69
2021/08/28 02:25:31;;;;;;;3.23;3.00;;;12.70;99.90;;;;;;495300;240;28010;-69
2021/08/28 02:27:33;;;;;;;4.83;2.57;;;12.70;99.90;;;;;;495292;240;28130;-69
2021/08/28 02:29:34;;;;;;;3.20;2.90;;;12.70;99.90;;;;;;495190;240;28002;-69
2021/08/28 02:31:35;;;;;;;3.17;2.97;;;12.70;99.90;;;;;;495208;240;28444;-70
2021/08/28 02:33:36;;;;;;;2.90;2.70;;;12.60;99.90;;;;;;495296;240;28501;-69
2021/08/28 02:35:38;;;;;;;2.90;2.70;;;12.60;99.90;;;;;;495239;240;28514;-69
2021/08/28 02:37:39;;;;;;;3.63;3.10;;;12.60;99.90;;;;;;495274;240;28318;-69
2021/08/28 02:39:40;;;;;;;3.57;3.13;;;12.60;99.90;;;;;;495227;240;29321;-69
2021/08/28 02:41:41;;;;;;;2.67;2.20;;;12.60;99.90;;;;;;495272;240;28654;-69
2021/08/28 02:43:43;;;;;;;2.97;2.67;;;12.60;99.90;;;;;;495332;240;28829;-69
2021/08/28 02:45:44;;;;;;;2.63;2.37;;;12.60;99.90;;;;;;495281;240;28855;-69
2021/08/28 02:47:45;;;;;;;2.93;2.73;;;12.60;99.90;;;;;;495278;240;28322;-69
2021/08/28 02:49:46;;;;;;;3.00;2.80;;;12.50;99.90;;;;;;495217;240;28783;-69
2021/08/28 02:51:48;;;;;;;3.07;2.87;;;12.40;99.90;;;;;;495314;240;28271;-69
2021/08/28 02:53:49;;;;;;;2.30;2.20;;;12.30;99.90;;;;;;495296;240;28066;-70
2021/08/28 02:55:50;;;;;;;2.73;2.53;;;12.30;99.90;;;;;;495255;240;28472;-69
2021/08/28 02:57:52;;;;;;;3.07;2.77;;;12.20;99.90;;;;;;495258;240;28502;-69
2021/08/28 02:59:53;;;;;;;2.87;2.67;;;12.30;99.90;;;;;;495222;240;28931;-69
2021/08/28 03:01:54;;;;;;;2.77;2.57;;;12.30;99.90;;;;;;495234;240;28589;-70
2021/08/28 03:03:55;;;;;;;3.00;2.67;;;12.30;99.90;;;;;;495063;240;28963;-69
2021/08/28 03:05:56;;;;;;;3.00;2.80;;;12.30;99.90;;;;;;495217;240;28578;-69
2021/08/28 03:07:58;;;;;;;3.03;2.70;;;12.40;99.90;;;;;;495246;240;28749;-69
2021/08/28 03:09:59;;;;;;;4.60;2.77;;;12.40;99.90;;;;;;495307;240;28094;-70
2021/08/28 03:12:00;;;;;;;3.87;3.17;;;12.40;99.90;;;;;;495279;240;28092;-69
2021/08/28 03:14:01;;;;;;;3.10;2.80;;;12.40;99.90;;;;;;495281;240;28449;-69
2021/08/28 03:16:03;;;;;;;3.40;3.10;;;12.50;99.90;;;;;;495219;240;28036;-69
2021/08/28 03:18:04;;;;;;;5.33;3.20;;;12.50;99.90;;;;;;495269;240;28575;-69
2021/08/28 03:20:06;;;;;;;3.40;3.10;;;12.50;99.90;;;;;;495331;240;28420;-70
2021/08/28 03:22:06;;;;;;;3.50;3.20;;;12.50;99.90;;;;;;495305;240;28432;-69
2021/08/28 03:24:08;;;;;;;4.50;3.30;;;12.50;99.90;;;;;;495304;240;28420;-69
2021/08/28 03:26:09;;;;;;;5.00;3.50;;;12.50;99.90;;;;;;495248;240;28874;-69
2021/08/28 03:28:10;;;;;;;3.87;3.37;;;12.50;99.90;;;;;;495252;240;28813;-69
2021/08/28 03:30:11;;;;;;;5.77;3.30;;;12.50;99.90;;;;;;495297;240;28938;-69
2021/08/28 03:32:13;;;;;;;3.80;3.40;;;12.50;99.90;;;;;;495271;240;28759;-69
2021/08/28 03:34:14;;;;;;;3.57;3.27;;;12.50;99.90;;;;;;495274;240;28294;-69
2021/08/28 03:36:15;;;;;;;3.83;3.53;;;12.50;99.90;;;;;;495248;240;28446;-69
2021/08/28 03:38:16;;;;;;;3.60;3.30;;;12.50;99.90;;;;;;495276;240;28316;-69
2021/08/28 03:40:18;;;;;;;3.90;3.60;;;12.50;99.90;;;;;;495298;240;28561;-70
2021/08/28 03:42:19;;;;;;;4.20;3.80;;;12.60;99.90;;;;;;495224;240;28841;-69
2021/08/28 03:44:20;;;;;;;3.77;3.37;;;12.60;99.90;;;;;;495253;240;28398;-69
2021/08/28 03:46:21;;;;;;;4.13;3.73;;;12.50;99.90;;;;;;495267;240;28637;-69
2021/08/28 03:48:23;;;;;;;4.40;4.00;;;12.60;99.90;;;;;;495246;240;28938;-69
2021/08/28 03:50:24;;;;;;;4.27;3.80;;;12.60;99.90;;;;;;495260;240;28956;-69
2021/08/28 03:52:25;;;;;;;3.87;3.57;;;12.60;99.90;;;;;;495247;240;28793;-69
2021/08/28 03:54:28;;;;;;;4.10;3.70;;;12.60;99.90;;;;;;495219;240;29001;-69
2021/08/28 03:56:28;;;;;;;5.50;4.43;;;12.60;99.90;;;;;;495263;240;28545;-69
2021/08/28 03:58:29;;;;;;;4.90;4.27;;;12.50;99.90;;;;;;495236;240;28006;-70
2021/08/28 04:00:30;;;;;;;5.20;4.70;;;12.50;99.90;;;;;;495259;240;28485;-70
2021/08/28 04:02:31;;;;;;;5.63;5.07;;;12.50;99.90;;;;;;495248;240;28190;-69
2021/08/28 04:04:33;;;;;;;4.30;3.90;;;12.60;99.90;;;;;;495208;240;28203;-69
2021/08/28 04:06:35;;;;;;;7.20;4.50;;;12.50;99.90;;;;;;495301;240;28312;-69
2021/08/28 04:08:36;;;;;;;5.73;4.30;;;12.60;99.90;;;;;;495259;240;28407;-69
2021/08/28 04:10:38;;;;;;;5.10;4.60;;;12.60;99.90;;;;;;495258;240;28395;-69
2021/08/28 04:12:39;;;;;;;5.30;4.90;;;12.50;99.90;;;;;;495266;240;28603;-69
2021/08/28 04:14:40;;;;;;;5.00;4.30;;;12.40;99.90;;;;;;495273;240;28843;-70
2021/08/28 04:16:41;;;;;;;3.70;3.23;;;12.30;99.90;;;;;;495339;240;28587;-69
2021/08/28 04:18:43;;;;;;;4.43;4.03;;;12.20;99.90;;;;;;495249;240;28421;-70
2021/08/28 04:20:44;;;;;;;4.60;4.20;;;12.20;99.90;;;;;;495217;240;28329;-70
2021/08/28 04:22:46;;;;;;;3.90;3.57;;;;;;;;;;495292;240;28588;-69
2021/08/28 04:24:48;;;;;;;4.30;3.90;;;12.20;99.90;;;;;;495238;240;27394;-69
2021/08/28 04:26:49;;;;;;;3.67;3.37;;;12.20;99.90;;;;;;495259;240;28809;-69
2021/08/28 04:28:50;;;;;;;4.60;3.93;;;12.30;99.90;;;;;;495241;240;28465;-69
2021/08/28 04:30:51;;;;;;;4.03;3.63;;;12.30;99.90;;;;;;495264;240;28715;-70
2021/08/28 04:32:53;;;;;;;4.70;3.80;;;12.30;99.90;;;;;;495296;240;28525;-69
2021/08/28 04:34:54;;;;;;;6.73;3.40;;;12.40;99.90;;;;;;495256;240;28265;-69
2021/08/28 04:36:55;;;;;;;5.30;4.40;;;12.40;99.90;;;;;;495288;240;28153;-69
2021/08/28 04:38:56;;;;;;;5.50;5.00;;;12.40;99.90;;;;;;495284;240;28407;-70
2021/08/28 04:40:58;;;;;;;4.70;4.30;;;12.40;99.90;;;;;;495304;240;28526;-69
2021/08/28 04:42:59;;;;;;;4.37;3.97;;;12.40;99.90;;;;;;495305;240;28148;-69
2021/08/28 04:45:00;;;;;;;4.23;3.93;;;12.40;99.90;;;;;;495264;240;28423;-69
2021/08/28 04:47:01;;;;;;;3.70;3.40;;;12.40;99.90;;;;;;495305;240;28474;-70
2021/08/28 04:49:04;;;;;;;3.83;3.53;;;;;;;;;;495318;240;29445;-69
2021/08/28 04:51:05;;;;;;;3.93;3.63;;;12.40;99.90;;;;;;495265;240;27067;-69
2021/08/28 04:53:06;;;;;;;4.53;4.13;;;12.40;99.90;;;;;;495332;240;28770;-69
2021/08/28 04:55:08;;;;;;;3.70;3.43;;;12.40;99.90;;;;;;495253;240;28511;-70
2021/08/28 04:57:09;;;;;;;3.90;3.60;;;12.40;99.90;;;;;;495317;240;29323;-69
2021/08/28 04:59:10;;;;;;;4.27;3.87;;;12.50;99.90;;;;;;495321;240;28691;-69
2021/08/28 05:01:11;;;;;;;4.47;4.10;;;12.50;99.90;;;;;;495270;240;29430;-69
2021/08/28 05:03:14;;;;;;;3.80;3.50;;;;;;;;;;495278;240;29592;-69
2021/08/28 05:05:15;;;;;;;3.90;3.60;;;12.50;99.90;;;;;;495327;240;27160;-69
2021/08/28 05:07:16;;;;;;;4.70;4.20;;;12.50;99.90;;;;;;495307;240;28231;-69
2021/08/28 05:09:17;;;;;;;3.97;3.57;;;12.50;99.90;;;;;;495334;240;28916;-69
2021/08/28 05:11:19;;;;;;;5.40;4.50;;;12.50;99.90;;;;;;495278;240;28607;-69
2021/08/28 05:13:20;;;;;;;4.50;3.70;;;12.50;99.90;;;;;;495306;240;28500;-69
2021/08/28 05:15:23;;;;;;;4.03;3.73;;;;;;;;;;495341;240;28961;-69
2021/08/28 05:17:24;;;;;;;4.67;4.27;;;12.50;99.90;;;;;;495286;240;26655;-70
2021/08/28 05:19:25;;;;;;;4.93;4.20;;;12.50;99.90;;;;;;495239;240;28457;-69
2021/08/28 05:21:26;;;;;;;4.70;4.30;;;12.50;99.90;;;;;;495243;240;28622;-69
2021/08/28 05:23:28;;;;;;;4.63;4.23;;;12.50;99.90;;;;;;495295;240;28737;-69
2021/08/28 05:25:29;;;;;;;4.53;4.13;;;12.50;99.90;;;;;;495292;240;28821;-69
2021/08/28 05:27:30;;;;;;;4.73;4.30;;;12.50;99.90;;;;;;495206;240;28863;-70
2021/08/28 05:29:31;;;;;;;4.83;4.20;;;12.50;99.90;;;;;;495270;240;28281;-69
2021/08/28 05:31:32;;;;;;;4.37;3.97;;;12.50;99.90;;;;;;495298;240;28125;-70
2021/08/28 05:33:34;;;;;;;3.80;3.50;;;12.50;99.90;;;;;;495257;240;28568;-70
2021/08/28 05:35:35;;;;;;;4.43;4.03;;;12.60;99.90;;;;;;495265;240;28353;-69
2021/08/28 05:37:36;;;;;;;4.40;4.00;;;12.60;99.90;;;;;;495197;240;28349;-69
2021/08/28 05:39:37;;;;;;;4.87;4.17;;;12.50;99.90;;;;;;495204;240;28027;-69
2021/08/28 05:41:39;;;;;;;4.70;4.30;;;12.50;99.90;;;;;;495278;240;28263;-69
2021/08/28 05:43:40;;;;;;;4.97;4.40;;;12.50;99.90;;;;;;495222;240;28807;-69
2021/08/28 05:45:41;;;;;;;5.07;4.40;;;12.50;99.90;;;;;;495298;240;28541;-69
2021/08/28 05:47:42;;;;;;;4.90;4.50;;;12.50;99.90;;;;;;495207;240;29021;-69
2021/08/28 05:49:44;;;;;;;4.57;4.17;;;12.50;99.90;;;;;;495255;240;30106;-69
2021/08/28 05:51:45;;;;;;;5.23;4.73;;;12.50;99.90;;;;;;495310;240;28934;-69
2021/08/28 05:53:46;;;;;;;4.77;4.37;;;12.50;99.90;;;;;;495243;240;28292;-69
2021/08/28 05:55:47;;;;;;;6.03;5.33;;;12.50;99.90;;;;;;495259;240;28114;-69
2021/08/28 05:57:49;;;;;;;5.67;4.90;;;12.50;99.90;;;;;;495188;240;28838;-69
2021/08/28 05:59:50;;;;;;;5.13;4.63;;;12.50;99.90;;;;;;495289;240;28827;-69
2021/08/28 06:01:52;;;;;;;5.30;4.73;;;12.50;99.90;;;;;;495312;240;28593;-69
2021/08/28 06:03:52;;;;;;;5.07;4.67;;;12.50;99.90;;;;;;495228;240;28354;-69
2021/08/28 06:05:54;;;;;;;5.40;4.90;;;12.60;99.90;;;;;;495253;240;28493;-69
2021/08/28 06:07:55;;;;;;;5.30;4.80;;;12.60;99.90;;;;;;495245;240;28632;-69
2021/08/28 06:09:56;;;;;;;5.60;4.97;;;12.60;99.90;;;;;;495259;240;28918;-69
2021/08/28 06:11:57;;;;;;;6.70;4.93;;;12.60;99.90;;;;;;495270;240;28752;-69
2021/08/28 06:13:59;;;;;;;5.07;4.60;;;12.70;99.90;;;;;;495234;240;28929;-69
2021/08/28 06:16:00;;;;;;;5.20;4.70;;;12.80;99.90;;;;;;495241;240;28469;-69
2021/08/28 06:18:01;;;;;;;5.17;4.67;;;12.80;99.90;;;;;;495251;240;28241;-69
2021/08/28 06:20:02;;;;;;;5.23;4.73;;;12.80;99.90;;;;;;495264;240;28785;-70
2021/08/28 06:22:04;;;;;;;5.43;4.93;;;12.80;99.90;;;;;;495263;240;28030;-69
2021/08/28 06:24:05;;;;;;;4.70;4.20;;;12.80;99.90;;;;;;495234;240;28563;-69
2021/08/28 06:26:06;;;;;;;5.57;5.07;;;12.80;99.90;;;;;;495231;240;28777;-69
2021/08/28 06:28:08;;;;;;;5.57;4.70;;;12.80;99.90;;;;;;495318;240;28801;-69
2021/08/28 06:30:09;;;;;;;5.20;4.70;;;12.80;99.90;;;;;;495298;240;28806;-70
2021/08/28 06:32:10;;;;;;;6.00;4.67;;;12.90;99.90;;;;;;495258;240;28663;-69
2021/08/28 06:34:11;;;;;;;5.37;4.87;;;12.90;99.90;;;;;;495250;240;28581;-69
2021/08/28 06:36:13;;;;;;;5.87;5.27;;;12.90;99.90;;;;;;495250;240;29476;-69
2021/08/28 06:38:14;;;;;;;5.77;5.10;;;12.90;99.90;;;;;;495309;240;28407;-69
2021/08/28 06:40:15;;;;;;;5.33;4.83;;;12.90;99.90;;;;;;495235;240;28054;-70
2021/08/28 06:42:16;;;;;;;6.77;4.80;;;12.90;99.90;;;;;;495312;240;28316;-69
2021/08/28 06:44:18;;;;;;;6.10;5.20;;;12.90;99.90;;;;;;495294;240;28201;-70
2021/08/28 06:46:19;;;;;;;5.40;4.90;;;13.00;99.90;;;;;;495241;240;28294;-69
2021/08/28 06:48:20;;;;;;;5.60;4.90;;;13.00;99.90;;;;;;495298;240;28560;-69
2021/08/28 06:50:21;;;;;;;5.60;4.83;;;13.00;99.90;;;;;;495176;240;28425;-69
2021/08/28 06:52:23;;;;;;;5.50;5.00;;;13.00;99.90;;;;;;495229;240;28284;-69
2021/08/28 06:54:24;;;;;;;5.20;4.70;;;12.90;99.90;;;;;;495234;240;28347;-70
2021/08/28 06:56:25;;;;;;;5.83;5.27;;;13.00;99.90;;;;;;495267;240;29263;-69
2021/08/28 06:58:26;;;;;;;6.90;5.13;;;13.00;99.90;;;;;;495292;240;28600;-69
2021/08/28 07:00:28;;;;;;;6.03;5.10;;;13.00;99.90;;;;;;495293;240;28803;-70
2021/08/28 07:02:29;;;;;;;5.60;5.10;;;13.00;99.90;;;;;;495226;240;28148;-69
2021/08/28 07:04:30;;;;;;;5.53;4.67;;;13.00;99.90;;;;;;485401;240;28081;-70
2021/08/28 07:06:31;;;;;;;5.97;5.20;;;13.10;99.90;;;;;;487302;242;28888;-69
2021/08/28 07:08:33;;;;;;;7.00;5.70;;;13.10;99.90;;;;;;483220;246;28739;-69
2021/08/28 07:10:34;;;;;;;5.07;4.60;;;13.20;99.90;;;;;;483176;246;29041;-69
2021/08/28 07:12:35;;;;;;;4.83;4.40;;;13.40;99.90;;;;;;483100;246;28804;-70
2021/08/28 07:14:37;;;;;;;5.47;4.97;;;13.50;99.90;;;;;;483205;246;28657;-69
2021/08/28 07:16:38;;;;;;;7.57;5.53;;;13.80;99.90;;;;;;483175;246;28267;-69
2021/08/28 07:18:39;;;;;;;6.47;5.57;;;14.00;99.90;;;;;;483146;246;28440;-71
2021/08/28 07:20:40;;;;;;;5.87;5.27;;;14.10;99.90;;;;;;483137;246;28569;-71
2021/08/28 07:22:42;;;;;;;5.40;4.90;;;14.10;99.90;;;;;;483134;246;28528;-71
2021/08/28 07:24:43;;;;;;;5.50;4.90;;;14.10;99.90;;;;;;483140;246;28536;-70
2021/08/28 07:26:44;;;;;;;6.03;5.10;;;14.10;99.90;;;;;;483133;246;28571;-70
2021/08/28 07:28:45;;;;;;;5.53;5.00;;;14.10;99.90;;;;;;483154;246;29006;-70
2021/08/28 07:30:47;;;;;;;7.30;6.20;;;14.00;99.90;;;;;;483188;246;28926;-70
2021/08/28 07:32:48;;;;;;;6.93;5.83;;;14.10;99.90;;;;;;483159;246;28602;-72
2021/08/28 07:34:50;;;;;;;7.43;6.27;;;14.00;99.90;;;;;;483121;246;28847;-72
2021/08/28 07:36:51;;;;;;;10.30;7.23;;;14.00;99.90;;;;;;483066;246;29320;-71
2021/08/28 07:38:52;;;;;;;6.40;5.80;;;14.10;99.90;;;;;;483109;246;29388;-69
2021/08/28 07:40:53;;;;;;;7.10;6.00;;;14.10;99.90;;;;;;483119;246;29416;-71
2021/08/28 07:42:54;;;;;;;8.40;5.87;;;14.20;99.90;;;;;;482997;246;28909;-69
2021/08/28 07:44:56;;;;;;;7.97;6.70;;;14.10;99.90;;;;;;482834;246;28849;-72
2021/08/28 07:46:57;;;;;;;8.53;6.23;;;14.20;99.90;;;;;;483163;246;28911;-72
2021/08/28 07:48:58;;;;;;;8.27;6.77;;;14.20;99.90;;;;;;483183;246;28942;-72
2021/08/28 07:50:59;;;;;;;8.43;7.10;;;14.10;99.90;;;;;;483116;246;28845;-72
2021/08/28 07:53:01;;;;;;;9.97;7.27;;;14.20;99.90;;;;;;483151;246;28635;-71
2021/08/28 07:55:02;;;;;;;12.23;8.37;;;14.10;99.90;;;;;;482898;246;28952;-71
2021/08/28 07:57:03;;;;;;;9.40;7.70;;;14.00;99.90;;;;;;483130;246;28554;-71
2021/08/28 07:59:04;;;;;;;11.10;7.67;;;14.10;99.90;;;;;;483159;246;29360;-71
2021/08/28 08:01:06;;;;;;;9.60;8.23;;;14.00;99.90;;;;;;483119;246;29338;-70
2021/08/28 08:03:07;;;;;;;10.43;7.60;;;13.90;99.90;;;;;;483083;246;29441;-69
2021/08/28 08:05:08;;;;;;;10.33;7.20;;;14.00;99.90;;;;;;483151;246;28920;-70
2021/08/28 08:07:09;;;;;;;8.47;7.43;;;14.00;99.90;;;;;;483164;246;29025;-70
2021/08/28 08:09:11;;;;;;;8.50;6.67;;;14.10;99.90;;;;;;483102;246;28608;-71
2021/08/28 08:11:16;;;;;;;7.67;6.27;;;14.10;99.90;;;;;;483113;246;28631;-71
2021/08/28 08:13:13;;;;;;;11.10;7.03;;;14.10;99.90;;;;;;482687;246;29836;-71
2021/08/28 08:15:15;;;;;;;8.20;6.10;;;14.00;99.90;;;;;;483180;246;29396;-71
2021/08/28 08:17:16;;;;;;;8.90;7.00;;;14.00;99.90;;;;;;483150;246;29398;-71
2021/08/28 08:19:17;;;;;;;7.20;6.27;;;13.90;99.90;;;;;;483079;246;29013;-70
2021/08/28 08:21:18;;;;;;;8.17;6.40;;;13.90;99.90;;;;;;483088;246;28531;-70
2021/08/28 08:23:20;;;;;;;8.27;6.80;;;13.80;99.90;;;;;;483129;246;28299;-70
2021/08/28 08:25:21;;;;;;;9.07;7.10;;;13.80;99.90;;;;;;483118;246;28464;-71
2021/08/28 08:27:22;;;;;;;7.40;6.47;;;13.80;99.90;;;;;;483121;246;28427;-69
2021/08/28 08:29:23;;;;;;;9.20;7.10;;;13.80;99.90;;;;;;483107;246;28253;-69
2021/08/28 08:31:25;;;;;;;9.60;7.80;;;13.70;99.90;;;;;;482947;246;28454;-69
2021/08/28 08:33:26;;;;;;;8.83;6.93;;;13.70;99.90;;;;;;482947;246;29080;-69
2021/08/28 08:35:27;;;;;;;8.20;6.40;;;13.60;99.90;;;;;;482986;246;28962;-69
2021/08/28 08:37:28;;;;;;;8.23;6.13;;;13.70;99.90;;;;;;483039;246;28845;-69
2021/08/28 08:39:30;;;;;;;7.63;6.23;;;13.70;99.90;;;;;;483143;244;28308;-69
2021/08/28 08:41:31;;;;;;;7.73;6.53;;;13.70;99.90;;;;;;483157;246;28426;-70
2021/08/28 08:43:32;;;;;;;8.60;6.83;;;13.70;99.90;;;;;;483115;246;28542;-71
2021/08/28 08:45:33;;;;;;;9.77;6.13;;;13.70;99.90;;;;;;483112;246;28966;-69
2021/08/28 08:47:35;;;;;;;8.23;6.73;;;13.80;99.90;;;;;;483097;246;28576;-69
2021/08/28 08:49:36;;;;;;;9.80;7.60;;;13.90;99.90;;;;;;483119;246;28215;-69
2021/08/28 08:51:37;;;;;;;7.03;6.33;;;13.80;99.90;;;;;;483164;246;28641;-69
2021/08/28 08:53:38;;;;;;;7.40;6.17;;;13.90;99.90;;;;;;483111;246;28231;-69
2021/08/28 08:55:40;;;;;;;10.27;6.90;;;14.00;99.90;;;;;;484654;240;28948;-69
2021/08/28 08:57:41;;;;;;;7.63;6.13;;;14.10;99.90;;;;;;493143;240;28603;-69
2021/08/28 08:59:42;;;;;;;9.50;6.37;;;14.10;99.90;;;;;;493136;240;29008;-69
2021/08/28 09:01:43;;;;;;;7.47;6.20;;;14.10;99.90;;;;;;492840;240;28864;-69
2021/08/28 09:03:45;;;;;;;8.40;6.93;;;14.10;99.90;;;;;;492757;240;28422;-70
2021/08/28 09:05:46;;;;;;;7.27;6.10;;;14.10;99.90;;;;;;492688;240;28917;-69
2021/08/28 09:07:47;;;;;;;7.47;6.57;;;14.10;99.90;;;;;;492689;240;28277;-69
2021/08/28 09:09:48;;;;;;;6.90;6.20;;;14.10;99.90;;;;;;492887;241;28438;-69
2021/08/28 09:11:50;;;;;;;7.40;6.20;;;14.00;99.90;;;;;;493487;240;28260;-69
2021/08/28 09:13:51;;;;;;;8.27;6.67;;;14.00;99.90;;;;;;493659;239;28826;-70
2021/08/28 09:15:57;;;;;;;6.90;5.60;;;14.00;99.90;;;;;;493616;239;28458;-69
2021/08/28 09:17:53;;;;;;;8.77;6.67;;;14.00;99.90;;;;;;493402;240;28485;-69
2021/08/28 09:19:55;;;;;;;7.10;5.97;;;13.90;99.90;;;;;;493693;241;28437;-70
2021/08/28 09:21:56;;;;;;;8.40;6.53;;;13.90;99.90;;;;;;493522;241;28871;-69
2021/08/28 09:23:57;;;;;;;8.73;6.87;;;13.70;99.90;;;;;;493533;241;29583;-70
2021/08/28 09:25:59;;;;;;;10.60;7.10;;;13.70;99.90;;;;;;493092;241;28817;-70
2021/08/28 09:28:00;;;;;;;9.77;7.10;;;13.70;99.90;;;;;;493297;241;28277;-70
2021/08/28 09:30:02;;;;;;;8.30;6.77;;;;;;;;;;493712;241;28185;-71
2021/08/28 09:32:03;;;;;;;9.80;6.47;;;13.50;99.90;;;;;;493710;241;26374;-69
2021/08/28 09:34:05;;;;;;;8.73;6.30;;;13.50;99.90;;;;;;493680;241;29245;-71
2021/08/28 09:36:06;;;;;;;8.13;6.03;;;13.60;99.90;;;;;;493624;241;28655;-71
2021/08/28 09:38:07;;;;;;;6.97;5.83;;;13.60;99.90;;;;;;493766;241;28644;-71
2021/08/28 09:40:08;;;;;;;7.90;6.40;;;13.50;99.90;;;;;;493692;241;28700;-71
2021/08/28 09:42:10;;;;;;;8.90;6.53;;;13.50;99.90;;;;;;493698;241;28168;-70
2021/08/28 09:44:11;;;;;;;6.20;5.43;;;13.50;99.90;;;;;;493669;241;28113;-71
2021/08/28 09:46:12;;;;;;;8.20;6.40;;;13.50;99.90;;;;;;493293;241;28439;-69
2021/08/28 09:48:13;;;;;;;5.73;5.17;;;13.50;99.90;;;;;;493192;241;28336;-69
2021/08/28 09:50:15;;;;;;;6.30;5.40;;;13.60;99.90;;;;;;493215;241;28806;-70
2021/08/28 09:52:16;;;;;;;5.20;4.70;;;13.50;99.90;;;;;;493241;241;28455;-69
2021/08/28 09:54:17;;;;;;;5.37;4.40;;;13.50;99.90;;;;;;493165;241;28539;-69
2021/08/28 09:56:18;;;;;;;6.07;5.47;;;13.60;99.90;;;;;;493070;241;29426;-70
2021/08/28 09:58:20;;;;;;;5.33;4.80;;;13.60;99.90;;;;;;493091;241;28939;-69
2021/08/28 10:00:21;;;;;;;4.37;3.97;;;13.70;99.90;;;;;;493072;241;29033;-69
2021/08/28 10:02:22;;;;;;;4.90;4.07;;;13.70;99.90;;;;;;493649;241;28572;-70
2021/08/28 10:04:23;;;;;;;3.87;3.57;;;13.70;99.90;;;;;;493660;241;28398;-70
2021/08/28 10:06:25;;;;;;;4.50;4.10;;;13.70;99.90;;;;;;493669;241;28441;-70
2021/08/28 10:08:27;;;;;;;4.53;4.10;;;13.90;99.90;;;;;;493672;241;28395;-69
2021/08/28 10:10:27;;;;;;;3.43;3.23;;;14.00;99.90;;;;;;493635;241;28420;-70
2021/08/28 10:12:28;;;;;;;4.13;3.80;;;14.00;99.90;;;;;;493631;241;28514;-69
2021/08/28 10:14:30;;;;;;;3.80;3.50;;;14.00;99.90;;;;;;493680;241;28270;-71
2021/08/28 10:16:31;;;;;;;3.87;3.53;;;13.90;99.90;;;;;;493694;241;28379;-71
2021/08/28 10:18:33;;;;;;;3.93;3.63;;;13.90;99.90;;;;;;493725;241;28095;-69
2021/08/28 10:20:33;;;;;;;3.60;3.30;;;13.90;99.90;;;;;;493633;241;28474;-68
2021/08/28 10:22:35;;;;;;;4.23;3.83;;;13.90;99.90;;;;;;493612;241;28838;-69
2021/08/28 10:24:36;;;;;;;3.60;3.30;;;13.90;99.90;;;;;;493716;241;28728;-70
2021/08/28 10:26:37;;;;;;;5.50;3.83;;;13.90;99.90;;;;;;493718;241;28983;-70
2021/08/28 10:28:38;;;;;;;4.30;3.53;;;14.00;99.90;;;;;;493676;241;28449;-70
2021/08/28 10:30:40;;;;;;;3.80;3.50;;;14.10;99.90;;;;;;493681;241;28774;-70
2021/08/28 10:32:41;;;;;;;3.23;3.00;;;14.20;99.90;;;;;;493664;241;28841;-71
2021/08/28 10:34:42;;;;;;;4.53;3.83;;;14.40;99.90;;;;;;493706;239;28794;-71